Time;durP1;ratioP1;P1;durP2;ratioP2;P2;SDS_P1;SDS_P2;PMS_P1;PMS_P2;Temp;Humidity;BMP_temperature;BMP_pressure;BME280_temperature;BME280_humidity;BME280_pressure;Samples;Min_cycle;Max_cycle;Signal;HPM_P1;HPM_P2
2023/01/08 00:01:34;;;;;;;0.22;0.22;;;10.00;99.90;;;;;;5070791;28;20477;-70
2023/01/08 00:04:01;;;;;;;0.10;0.10;;;10.10;99.90;;;;;;5070972;28;20075;-70
2023/01/08 00:06:26;;;;;;;1.58;1.02;;;10.00;99.90;;;;;;5072048;28;20143;-70
2023/01/08 00:08:52;;;;;;;0.20;0.20;;;10.00;99.90;;;;;;5090012;28;20123;-71
2023/01/08 00:11:18;;;;;;;0.10;0.10;;;10.00;99.90;;;;;;5085830;28;20102;-71
2023/01/08 00:13:44;;;;;;;0.10;0.10;;;9.90;99.90;;;;;;5056950;28;20052;-71
2023/01/08 00:16:13;;;;;;;8.40;1.60;;;10.00;99.90;;;;;;5076484;28;20037;-70
2023/01/08 00:18:39;;;;;;;0.25;0.25;;;10.00;99.90;;;;;;5069201;28;20527;-71
2023/01/08 00:21:05;;;;;;;3.42;2.42;;;10.00;99.90;;;;;;5110409;28;20039;-71
2023/01/08 00:23:31;;;;;;;0.50;0.50;;;10.00;99.90;;;;;;5093470;28;20066;-70
2023/01/08 00:26:01;;;;;;;0.93;0.90;;;10.00;99.90;;;;;;5070593;28;20098;-71
2023/01/08 00:28:27;;;;;;;10.20;1.20;;;10.00;99.90;;;;;;5056605;28;20094;-71
2023/01/08 00:30:52;;;;;;;0.32;0.32;;;10.00;99.90;;;;;;5083757;28;20512;-71
2023/01/08 00:33:18;;;;;;;0.10;0.10;;;10.00;99.90;;;;;;5077348;28;20036;-71
2023/01/08 00:35:44;;;;;;;0.15;0.15;;;10.00;99.90;;;;;;5066530;28;20086;-71
2023/01/08 00:38:10;;;;;;;0.65;0.65;;;10.00;99.90;;;;;;5089692;28;20068;-70
2023/01/08 00:40:37;;;;;;;0.38;0.38;;;10.00;99.90;;;;;;5090266;28;20051;-70
2023/01/08 00:43:03;;;;;;;0.15;0.15;;;9.90;99.90;;;;;;5084155;28;20037;-71
2023/01/08 00:45:29;;;;;;;0.30;0.30;;;9.90;99.90;;;;;;5069969;28;20060;-71
2023/01/08 00:47:55;;;;;;;0.10;0.10;;;9.80;99.90;;;;;;5092441;28;20040;-70
2023/01/08 00:50:20;;;;;;;0.10;0.10;;;9.80;99.90;;;;;;5078651;28;20126;-71
2023/01/08 00:52:46;;;;;;;10.50;1.27;;;9.80;99.90;;;;;;5051944;28;20048;-71
2023/01/08 00:55:12;;;;;;;0.10;0.10;;;9.80;99.90;;;;;;5050641;28;20550;-71
2023/01/08 00:57:38;;;;;;;0.10;0.10;;;9.80;99.90;;;;;;5068925;28;20044;-70
2023/01/08 01:00:08;;;;;;;0.10;0.10;;;9.70;99.90;;;;;;5086793;28;20046;-70
2023/01/08 01:02:35;;;;;;;0.10;0.10;;;9.70;99.90;;;;;;5082247;28;20044;-70
2023/01/08 01:05:01;;;;;;;0.63;0.63;;;9.70;99.90;;;;;;5051706;28;20098;-71
2023/01/08 01:07:27;;;;;;;0.10;0.10;;;9.70;99.90;;;;;;5089782;28;20047;-70
2023/01/08 01:09:52;;;;;;;0.20;0.20;;;9.70;99.90;;;;;;5071192;28;20071;-70
2023/01/08 01:12:18;;;;;;;0.10;0.10;;;9.70;99.90;;;;;;5086604;28;20179;-70
2023/01/08 01:14:44;;;;;;;0.17;0.17;;;9.70;99.90;;;;;;5081444;28;20037;-70
2023/01/08 01:17:11;;;;;;;0.40;0.40;;;9.70;99.90;;;;;;5069329;28;20051;-70
2023/01/08 01:19:37;;;;;;;0.10;0.10;;;9.60;99.90;;;;;;5073720;28;20051;-70
2023/01/08 01:22:03;;;;;;;0.10;0.10;;;9.60;99.90;;;;;;5070530;28;20044;-70
2023/01/08 01:24:29;;;;;;;0.10;0.10;;;9.60;99.90;;;;;;5069962;28;20040;-70
2023/01/08 01:26:56;;;;;;;0.00;0.00;;;9.50;99.90;;;;;;5088951;28;20055;-70
2023/01/08 01:29:23;;;;;;;0.10;0.10;;;9.40;99.90;;;;;;5069268;28;20131;-70
2023/01/08 01:31:49;;;;;;;0.10;0.10;;;9.40;99.90;;;;;;5067866;28;20049;-70
2023/01/08 01:34:14;;;;;;;0.10;0.10;;;9.40;99.90;;;;;;5059702;28;20043;-70
2023/01/08 01:36:40;;;;;;;0.10;0.10;;;9.30;99.90;;;;;;5087400;28;20051;-70
2023/01/08 01:39:06;;;;;;;0.10;0.10;;;9.40;99.90;;;;;;5086213;28;20043;-70
2023/01/08 01:41:37;;;;;;;0.10;0.10;;;9.30;99.90;;;;;;5068582;28;20049;-70
2023/01/08 01:44:50;;;;;;;0.70;0.70;;;9.30;99.90;;;;;;5067695;28;20166;-70
2023/01/08 01:47:36;;;;;;;0.63;0.52;;;9.30;99.90;;;;;;5065123;28;20052;-70
2023/01/08 01:50:19;;;;;;;0.10;0.10;;;9.30;99.90;;;;;;5055174;28;20055;-70
2023/01/08 01:53:07;;;;;;;2.20;1.85;;;9.30;99.90;;;;;;5074920;28;20044;-70
2023/01/08 01:55:36;;;;;;;0.10;0.10;;;9.20;99.90;;;;;;5070649;28;20086;-70
2023/01/08 01:58:24;;;;;;;0.10;0.10;;;9.20;99.90;;;;;;5050682;28;20052;-70
2023/01/08 02:00:52;;;;;;;0.10;0.10;;;9.20;99.90;;;;;;5070615;28;20083;-70
2023/01/08 02:03:24;;;;;;;0.70;0.70;;;9.20;99.90;;;;;;5068999;28;20071;-70
2023/01/08 02:05:54;;;;;;;0.00;0.00;;;9.20;99.90;;;;;;5074471;28;20063;-70
2023/01/08 02:08:53;;;;;;;0.00;0.00;;;9.20;99.90;;;;;;5068199;28;20040;-70
2023/01/08 02:11:29;;;;;;;2.40;1.95;;;9.20;99.90;;;;;;5089255;28;20047;-70
2023/01/08 02:14:03;;;;;;;0.28;0.28;;;9.10;99.90;;;;;;5085494;28;20039;-70
2023/01/08 02:16:44;;;;;;;0.93;0.90;;;9.10;99.90;;;;;;5085475;28;20090;-70
2023/01/08 02:19:20;;;;;;;0.10;0.10;;;9.10;99.90;;;;;;5068303;28;20041;-70
2023/01/08 02:21:55;;;;;;;0.28;0.28;;;9.20;99.90;;;;;;5049487;28;20045;-70
2023/01/08 02:25:01;;;;;;;0.10;0.10;;;9.20;99.90;;;;;;5068557;28;20044;-70
2023/01/08 02:27:29;;;;;;;1.05;0.95;;;9.20;99.90;;;;;;5067350;28;20055;-70
2023/01/08 02:29:57;;;;;;;0.10;0.10;;;9.20;99.90;;;;;;5068024;28;20044;-70
2023/01/08 02:32:27;;;;;;;0.70;0.70;;;9.10;99.90;;;;;;5068605;28;20075;-70
2023/01/08 02:34:54;;;;;;;0.57;0.57;;;9.10;99.90;;;;;;5068396;28;20511;-70
2023/01/08 02:37:19;;;;;;;0.10;0.10;;;9.00;99.90;;;;;;5055705;28;20043;-70
2023/01/08 02:40:00;;;;;;;0.10;0.10;;;9.10;99.90;;;;;;5067469;28;20052;-70
2023/01/08 02:42:35;;;;;;;0.47;0.47;;;9.00;99.90;;;;;;5068969;28;20044;-70
2023/01/08 02:45:22;;;;;;;0.10;0.10;;;9.00;99.90;;;;;;5068028;28;20060;-70
2023/01/08 02:48:15;;;;;;;0.38;0.38;;;9.00;99.90;;;;;;5057285;28;20450;-70
2023/01/08 02:51:08;;;;;;;0.10;0.10;;;9.00;99.90;;;;;;5068226;28;20048;-70
2023/01/08 02:53:40;;;;;;;0.20;0.20;;;8.90;99.90;;;;;;5065424;28;20060;-70
2023/01/08 02:56:12;;;;;;;0.10;0.10;;;9.00;99.90;;;;;;5076457;28;20121;-70
2023/01/08 02:58:39;;;;;;;1.52;1.42;;;8.90;99.90;;;;;;5087174;28;20093;-70
2023/01/08 03:01:09;;;;;;;0.00;0.00;;;8.90;99.90;;;;;;5085680;28;20381;-71
2023/01/08 03:03:37;;;;;;;0.30;0.30;;;8.90;99.90;;;;;;5085754;28;20113;-70
2023/01/08 03:06:11;;;;;;;0.20;0.20;;;8.90;99.90;;;;;;5088152;28;20048;-70
2023/01/08 03:08:40;;;;;;;0.05;0.05;;;8.90;99.90;;;;;;5071771;28;20560;-70
2023/01/08 03:11:16;;;;;;;0.00;0.00;;;8.90;99.90;;;;;;5067803;28;20446;-70
2023/01/08 03:13:45;;;;;;;0.30;0.30;;;8.90;99.90;;;;;;5067875;28;20048;-70
2023/01/08 03:16:16;;;;;;;0.00;0.00;;;8.90;99.90;;;;;;5075513;28;20115;-70
2023/01/08 03:18:47;;;;;;;0.10;0.10;;;8.90;99.90;;;;;;5088103;28;20120;-70
2023/01/08 03:21:16;;;;;;;0.10;0.10;;;8.90;99.90;;;;;;5073744;28;20127;-70
2023/01/08 03:23:43;;;;;;;1.42;1.33;;;8.90;99.90;;;;;;5071837;28;20131;-70
2023/01/08 03:26:12;;;;;;;1.50;1.40;;;8.80;99.90;;;;;;5091421;28;20110;-70
2023/01/08 03:28:44;;;;;;;0.10;0.10;;;8.80;99.90;;;;;;5070776;28;20044;-70
2023/01/08 03:31:13;;;;;;;0.03;0.03;;;8.80;99.90;;;;;;5053550;28;20127;-70
2023/01/08 03:33:39;;;;;;;3.60;1.67;;;8.80;99.90;;;;;;5091027;28;20043;-70
2023/01/08 03:36:07;;;;;;;0.10;0.10;;;8.80;99.90;;;;;;5099472;28;20119;-70
2023/01/08 03:38:40;;;;;;;0.35;0.35;;;8.80;99.90;;;;;;5072285;28;20049;-70
2023/01/08 03:41:10;;;;;;;0.00;0.00;;;8.70;99.90;;;;;;5083470;28;20044;-70
2023/01/08 03:43:36;;;;;;;0.10;0.10;;;8.70;99.90;;;;;;5076704;28;20084;-70
2023/01/08 03:46:06;;;;;;;0.13;0.13;;;8.80;99.90;;;;;;5084739;28;20083;-70
2023/01/08 03:48:33;;;;;;;0.98;0.88;;;8.80;99.90;;;;;;5087362;28;20048;-70
2023/01/08 03:50:59;;;;;;;0.10;0.10;;;8.80;99.90;;;;;;5070405;28;20045;-70
2023/01/08 03:53:26;;;;;;;0.30;0.30;;;8.80;99.90;;;;;;5075704;28;20533;-70
2023/01/08 03:55:51;;;;;;;0.00;0.00;;;8.80;99.90;;;;;;5070226;28;20119;-70
2023/01/08 03:58:17;;;;;;;0.95;0.95;;;8.80;99.90;;;;;;5071891;28;20470;-70
2023/01/08 04:00:43;;;;;;;0.08;0.08;;;8.80;99.90;;;;;;5087112;28;20052;-70
2023/01/08 04:03:08;;;;;;;0.10;0.10;;;8.80;99.90;;;;;;5071221;28;20037;-70
2023/01/08 04:05:34;;;;;;;0.00;0.00;;;8.80;99.90;;;;;;5074124;28;20053;-70
2023/01/08 04:07:59;;;;;;;0.10;0.10;;;8.80;99.90;;;;;;5070634;28;20086;-70
2023/01/08 04:10:25;;;;;;;0.30;0.30;;;8.80;99.90;;;;;;5080009;28;20111;-71
2023/01/08 04:12:51;;;;;;;0.00;0.00;;;8.80;99.90;;;;;;5090245;28;20097;-70
2023/01/08 04:15:17;;;;;;;0.00;0.00;;;8.80;99.90;;;;;;5076689;28;20394;-70
2023/01/08 04:17:43;;;;;;;0.15;0.15;;;8.80;99.90;;;;;;5091266;28;20055;-70
2023/01/08 04:20:09;;;;;;;0.90;0.90;;;8.80;99.90;;;;;;5090528;28;20051;-70
2023/01/08 04:22:34;;;;;;;0.77;0.77;;;8.80;99.90;;;;;;5090741;28;20394;-70
2023/01/08 04:25:00;;;;;;;0.10;0.10;;;8.80;99.90;;;;;;5074633;28;20047;-70
2023/01/08 04:27:26;;;;;;;0.00;0.00;;;8.70;99.90;;;;;;5052101;28;20044;-70
2023/01/08 04:29:51;;;;;;;0.10;0.10;;;8.80;99.90;;;;;;5077474;28;20511;-70
2023/01/08 04:32:18;;;;;;;0.00;0.00;;;8.80;99.90;;;;;;5095358;28;20043;-70
2023/01/08 04:34:44;;;;;;;1.17;1.10;;;8.80;99.90;;;;;;5089145;28;20070;-70
2023/01/08 04:37:09;;;;;;;0.10;0.10;;;8.80;99.90;;;;;;5090649;28;20360;-70
2023/01/08 04:39:35;;;;;;;0.10;0.10;;;8.80;99.90;;;;;;5059365;28;20067;-70
2023/01/08 04:42:00;;;;;;;0.00;0.00;;;8.80;99.90;;;;;;5069426;28;20041;-70
2023/01/08 04:44:26;;;;;;;0.10;0.10;;;8.90;99.90;;;;;;5073155;28;20040;-70
2023/01/08 04:46:52;;;;;;;0.10;0.10;;;8.90;99.90;;;;;;5101385;28;20052;-70
2023/01/08 04:49:18;;;;;;;0.10;0.10;;;8.90;99.90;;;;;;5094522;28;20044;-70
2023/01/08 04:51:43;;;;;;;1.45;0.45;;;8.90;99.90;;;;;;5050743;28;20404;-70
2023/01/08 04:54:09;;;;;;;0.00;0.00;;;8.90;99.90;;;;;;5069564;28;20041;-70
2023/01/08 04:56:35;;;;;;;0.38;0.38;;;8.90;99.90;;;;;;5051502;28;20404;-69
2023/01/08 04:59:01;;;;;;;0.13;0.13;;;8.90;99.90;;;;;;5066283;28;20052;-69
2023/01/08 05:01:28;;;;;;;0.10;0.10;;;8.80;99.90;;;;;;5089541;28;20040;-70
2023/01/08 05:04:04;;;;;;;0.10;0.10;;;8.80;99.90;;;;;;5090030;28;20077;-70
2023/01/08 05:06:30;;;;;;;0.10;0.10;;;8.80;99.90;;;;;;5075447;28;20051;-70
2023/01/08 05:08:56;;;;;;;0.10;0.10;;;8.80;99.90;;;;;;5087433;28;20455;-70
2023/01/08 05:11:22;;;;;;;0.20;0.20;;;8.80;99.90;;;;;;5083128;28;20044;-70
2023/01/08 05:13:49;;;;;;;0.10;0.10;;;8.80;99.90;;;;;;5077039;28;20044;-70
2023/01/08 05:16:15;;;;;;;0.17;0.17;;;8.80;99.90;;;;;;5102195;28;20108;-70
2023/01/08 05:18:42;;;;;;;0.10;0.10;;;8.80;99.90;;;;;;5106500;28;20036;-71
2023/01/08 05:21:07;;;;;;;0.10;0.10;;;8.80;99.90;;;;;;5076365;28;20160;-70
2023/01/08 05:23:33;;;;;;;0.20;0.20;;;8.80;99.90;;;;;;5081356;28;20147;-70
2023/01/08 05:26:01;;;;;;;1.88;1.65;;;8.70;99.90;;;;;;5070764;28;20044;-70
2023/01/08 05:28:27;;;;;;;0.30;0.30;;;8.80;99.90;;;;;;5068980;28;20052;-70
2023/01/08 05:30:53;;;;;;;0.28;0.28;;;8.70;99.90;;;;;;5074326;28;20044;-70
2023/01/08 05:33:19;;;;;;;0.10;0.10;;;8.70;99.90;;;;;;5075976;28;20581;-70
2023/01/08 05:35:45;;;;;;;0.20;0.20;;;8.70;99.90;;;;;;5068901;28;20040;-70
2023/01/08 05:38:11;;;;;;;0.00;0.00;;;8.70;99.90;;;;;;5071392;28;20041;-70
2023/01/08 05:40:36;;;;;;;0.10;0.10;;;8.70;99.90;;;;;;5051069;28;20075;-70
2023/01/08 05:43:04;;;;;;;0.10;0.10;;;8.70;99.90;;;;;;5076241;28;20048;-69
2023/01/08 05:45:30;;;;;;;0.25;0.25;;;8.70;99.90;;;;;;5093072;28;20161;-70
2023/01/08 05:47:55;;;;;;;0.05;0.05;;;8.60;99.90;;;;;;5078900;28;20511;-69
2023/01/08 05:50:21;;;;;;;0.10;0.10;;;8.60;99.90;;;;;;5074741;28;20047;-69
2023/01/08 05:52:47;;;;;;;0.30;0.30;;;8.60;99.90;;;;;;5066245;28;20502;-70
2023/01/08 05:55:13;;;;;;;1.08;0.93;;;8.50;99.90;;;;;;5051389;28;20055;-70
2023/01/08 05:57:39;;;;;;;0.40;0.40;;;8.50;99.90;;;;;;5066944;28;20519;-69
2023/01/08 06:00:07;;;;;;;0.10;0.10;;;8.50;99.90;;;;;;5068704;28;20040;-70
2023/01/08 06:02:33;;;;;;;0.05;0.05;;;8.60;99.90;;;;;;5068754;28;20044;-70
2023/01/08 06:04:58;;;;;;;0.10;0.10;;;8.50;99.90;;;;;;5067573;28;20090;-70
2023/01/08 06:07:24;;;;;;;0.10;0.10;;;8.50;99.90;;;;;;5076431;28;20044;-70
2023/01/08 06:09:50;;;;;;;0.10;0.10;;;8.50;99.90;;;;;;5068629;28;20135;-70
2023/01/08 06:12:16;;;;;;;0.10;0.10;;;8.50;99.90;;;;;;5068077;28;20659;-70
2023/01/08 06:14:41;;;;;;;0.10;0.10;;;8.40;99.90;;;;;;5072135;28;20135;-70
2023/01/08 06:17:07;;;;;;;0.00;0.00;;;8.40;99.90;;;;;;5093844;28;20051;-70
2023/01/08 06:19:32;;;;;;;0.10;0.10;;;8.40;99.90;;;;;;5087643;28;20119;-70
2023/01/08 06:21:58;;;;;;;0.22;0.22;;;8.30;99.90;;;;;;5054666;28;20036;-70
2023/01/08 06:24:24;;;;;;;0.00;0.00;;;8.30;99.90;;;;;;5068610;28;20055;-71
2023/01/08 06:26:50;;;;;;;0.10;0.10;;;8.20;99.90;;;;;;5087313;28;20472;-70
2023/01/08 06:29:15;;;;;;;0.00;0.00;;;8.20;99.90;;;;;;5070490;28;20133;-70
2023/01/08 06:31:41;;;;;;;0.55;0.55;;;8.20;99.90;;;;;;5080423;28;20048;-70
2023/01/08 06:34:07;;;;;;;0.00;0.00;;;8.20;99.90;;;;;;5074045;28;20190;-70
2023/01/08 06:36:32;;;;;;;0.10;0.10;;;8.20;99.90;;;;;;5088642;28;20471;-70
2023/01/08 06:38:58;;;;;;;0.05;0.05;;;8.10;99.90;;;;;;5088382;28;20470;-70
2023/01/08 06:41:24;;;;;;;0.10;0.10;;;8.10;99.90;;;;;;5070612;28;20048;-71
2023/01/08 06:43:49;;;;;;;0.10;0.10;;;8.10;99.90;;;;;;5080006;28;20047;-70
2023/01/08 06:46:15;;;;;;;0.45;0.45;;;8.10;99.90;;;;;;5084597;28;20066;-71
2023/01/08 06:48:41;;;;;;;0.57;0.57;;;8.10;99.90;;;;;;5086697;28;20055;-70
2023/01/08 06:51:07;;;;;;;0.20;0.20;;;8.00;99.90;;;;;;5074100;28;20125;-70
2023/01/08 06:53:33;;;;;;;0.10;0.10;;;8.10;99.90;;;;;;5067411;28;20045;-70
2023/01/08 06:55:58;;;;;;;0.10;0.10;;;8.00;99.90;;;;;;5068594;28;20435;-70
2023/01/08 06:58:27;;;;;;;0.10;0.10;;;8.00;99.90;;;;;;5076837;28;20059;-70
2023/01/08 07:00:53;;;;;;;0.10;0.10;;;8.00;99.90;;;;;;5077037;28;20585;-70
2023/01/08 07:03:19;;;;;;;0.57;0.57;;;7.90;99.90;;;;;;5088218;28;20041;-69
2023/01/08 07:05:45;;;;;;;0.10;0.10;;;8.00;99.90;;;;;;5077128;28;20093;-71
2023/01/08 07:08:15;;;;;;;0.10;0.10;;;7.90;99.90;;;;;;5091711;28;20044;-70
2023/01/08 07:10:42;;;;;;;0.00;0.00;;;8.00;99.90;;;;;;5076614;28;20048;-70
2023/01/08 07:13:08;;;;;;;4.45;0.68;;;8.00;99.90;;;;;;5086650;28;20121;-70
2023/01/08 07:15:36;;;;;;;1.55;1.38;;;8.00;99.90;;;;;;5100777;28;20112;-70
2023/01/08 07:18:04;;;;;;;0.10;0.10;;;8.00;99.90;;;;;;5102144;28;20041;-70
2023/01/08 07:20:31;;;;;;;0.10;0.10;;;8.00;99.90;;;;;;5082957;28;20048;-70
2023/01/08 07:23:03;;;;;;;0.10;0.10;;;8.00;99.90;;;;;;5073082;28;20373;-70
2023/01/08 07:25:29;;;;;;;0.10;0.10;;;7.90;99.90;;;;;;5075528;28;20040;-70
2023/01/08 07:27:55;;;;;;;0.10;0.10;;;7.90;99.90;;;;;;5073237;28;20071;-71
2023/01/08 07:30:21;;;;;;;0.57;0.57;;;7.90;99.90;;;;;;5075748;28;20523;-71
2023/01/08 07:32:47;;;;;;;0.10;0.10;;;7.90;99.90;;;;;;5076528;28;20131;-70
2023/01/08 07:35:12;;;;;;;0.32;0.32;;;7.90;99.90;;;;;;5077266;28;20042;-70
2023/01/08 07:37:39;;;;;;;0.10;0.10;;;8.00;99.90;;;;;;5077797;28;20032;-71
2023/01/08 07:40:06;;;;;;;0.30;0.30;;;7.90;99.90;;;;;;5093838;28;20055;-71
2023/01/08 07:42:31;;;;;;;0.10;0.10;;;7.90;99.90;;;;;;5093766;28;20488;-71
2023/01/08 07:44:57;;;;;;;0.00;0.00;;;7.90;99.90;;;;;;5070911;28;20156;-71
2023/01/08 07:47:22;;;;;;;0.10;0.10;;;7.90;99.90;;;;;;5090780;28;20480;-71
2023/01/08 07:49:48;;;;;;;0.10;0.10;;;7.90;99.90;;;;;;5092645;28;20083;-71
2023/01/08 07:52:13;;;;;;;0.05;0.05;;;7.90;99.90;;;;;;5083777;28;20035;-71
2023/01/08 07:54:39;;;;;;;0.10;0.10;;;7.80;99.90;;;;;;5078559;28;20067;-71
2023/01/08 07:57:05;;;;;;;0.35;0.35;;;7.90;99.90;;;;;;5072595;28;20129;-71
2023/01/08 07:59:30;;;;;;;0.40;0.40;;;7.90;99.90;;;;;;5067162;28;20040;-71
2023/01/08 08:01:56;;;;;;;0.13;0.13;;;7.90;99.90;;;;;;5092218;28;20123;-71
2023/01/08 08:04:23;;;;;;;0.50;0.50;;;7.90;99.90;;;;;;5079974;28;20549;-70
2023/01/08 08:06:49;;;;;;;0.10;0.10;;;7.90;99.90;;;;;;5074456;28;20052;-71
2023/01/08 08:09:15;;;;;;;0.30;0.30;;;7.90;99.90;;;;;;5073005;28;20040;-70
2023/01/08 08:11:40;;;;;;;0.32;0.32;;;8.00;99.90;;;;;;5075931;28;20552;-71
2023/01/08 08:14:06;;;;;;;0.13;0.13;;;7.90;99.90;;;;;;5085766;28;20529;-70
2023/01/08 08:16:32;;;;;;;0.80;0.65;;;7.90;99.90;;;;;;5092360;28;20055;-70
2023/01/08 08:18:58;;;;;;;0.10;0.10;;;8.00;99.90;;;;;;5092529;28;20043;-71
2023/01/08 08:21:24;;;;;;;0.10;0.10;;;7.90;99.90;;;;;;5084734;28;20121;-71
2023/01/08 08:23:50;;;;;;;0.30;0.30;;;8.00;99.90;;;;;;5058814;28;20612;-71
2023/01/08 08:26:15;;;;;;;0.20;0.20;;;8.00;99.90;;;;;;5071265;28;20127;-72
2023/01/08 08:28:41;;;;;;;0.47;0.47;;;7.90;99.90;;;;;;5072136;28;20064;-71
2023/01/08 08:31:07;;;;;;;0.40;0.40;;;8.00;99.90;;;;;;5079372;28;20102;-71
2023/01/08 08:33:32;;;;;;;0.43;0.43;;;7.90;99.90;;;;;;5053280;28;20056;-72
2023/01/08 08:35:58;;;;;;;0.20;0.20;;;8.00;99.90;;;;;;5065988;28;20121;-71
2023/01/08 08:38:25;;;;;;;0.00;0.00;;;8.00;99.90;;;;;;5073927;28;20056;-71
2023/01/08 08:40:51;;;;;;;2.17;1.98;;;8.00;99.90;;;;;;5071774;28;20051;-71
2023/01/08 08:43:16;;;;;;;0.55;0.55;;;8.00;99.90;;;;;;5066423;28;20212;-71
2023/01/08 08:45:42;;;;;;;0.10;0.10;;;8.00;99.90;;;;;;5060391;28;20231;-71
2023/01/08 08:48:08;;;;;;;1.75;1.65;;;8.00;99.90;;;;;;5053205;28;20052;-70
2023/01/08 08:50:34;;;;;;;0.10;0.10;;;8.00;99.90;;;;;;5067476;28;20129;-71
2023/01/08 08:53:01;;;;;;;0.10;0.10;;;8.00;99.90;;;;;;5063885;28;20040;-71
2023/01/08 08:55:27;;;;;;;0.03;0.03;;;8.00;99.90;;;;;;5072361;28;20052;-71
2023/01/08 08:57:53;;;;;;;0.10;0.10;;;8.10;99.90;;;;;;5075917;28;20048;-71
2023/01/08 09:00:19;;;;;;;0.10;0.10;;;8.10;99.90;;;;;;5053455;28;20480;-71
2023/01/08 09:02:45;;;;;;;0.10;0.10;;;8.10;99.90;;;;;;5053691;28;20044;-71
2023/01/08 09:05:11;;;;;;;3.67;2.45;;;8.10;99.90;;;;;;5080447;28;20048;-70
2023/01/08 09:07:36;;;;;;;0.10;0.10;;;8.10;99.90;;;;;;5071106;28;20040;-71
2023/01/08 09:10:03;;;;;;;0.50;0.50;;;8.10;99.90;;;;;;5071782;28;20599;-70
2023/01/08 09:12:28;;;;;;;0.10;0.10;;;8.10;99.90;;;;;;5070882;28;20476;-70
2023/01/08 09:14:55;;;;;;;0.10;0.10;;;8.10;99.90;;;;;;5081078;28;20054;-71
2023/01/08 09:17:22;;;;;;;0.10;0.10;;;8.10;99.90;;;;;;5064322;28;20048;-70
2023/01/08 09:19:47;;;;;;;0.22;0.22;;;8.20;99.90;;;;;;5069121;28;20480;-71
2023/01/08 09:22:13;;;;;;;0.93;0.68;;;8.20;99.90;;;;;;5070722;28;20044;-70
2023/01/08 09:24:38;;;;;;;0.52;0.52;;;8.20;99.90;;;;;;5070889;28;20036;-71
2023/01/08 09:27:04;;;;;;;0.10;0.10;;;8.30;99.90;;;;;;5075446;28;20056;-71
2023/01/08 09:29:29;;;;;;;0.10;0.10;;;8.30;99.90;;;;;;5070734;28;20384;-70
2023/01/08 09:31:56;;;;;;;0.10;0.10;;;8.30;99.90;;;;;;5085814;28;20036;-70
2023/01/08 09:34:22;;;;;;;0.10;0.10;;;8.30;99.90;;;;;;5086894;28;20051;-70
2023/01/08 09:36:47;;;;;;;0.30;0.30;;;8.30;99.90;;;;;;5070562;28;20407;-70
2023/01/08 09:39:13;;;;;;;0.10;0.10;;;8.30;99.90;;;;;;5071648;28;20036;-70
2023/01/08 09:41:43;;;;;;;0.35;0.35;;;8.30;99.90;;;;;;5076351;28;20040;-70
2023/01/08 09:44:14;;;;;;;0.10;0.10;;;8.30;99.90;;;;;;5053806;28;20442;-70
2023/01/08 09:46:40;;;;;;;0.10;0.10;;;8.40;99.90;;;;;;5081740;28;20052;-70
2023/01/08 09:49:10;;;;;;;0.10;0.10;;;8.40;99.90;;;;;;5089554;28;20067;-70
2023/01/08 09:51:37;;;;;;;0.10;0.10;;;8.50;99.90;;;;;;5053333;28;20048;-71
2023/01/08 09:54:06;;;;;;;0.10;0.10;;;8.50;99.90;;;;;;5073323;28;20381;-71
2023/01/08 09:56:33;;;;;;;0.75;0.57;;;8.50;99.90;;;;;;5090475;28;20062;-71
2023/01/08 09:59:01;;;;;;;0.10;0.10;;;8.50;99.90;;;;;;5088623;28;20044;-70
2023/01/08 10:01:29;;;;;;;0.15;0.15;;;8.50;99.90;;;;;;5066898;28;20052;-71
2023/01/08 10:04:03;;;;;;;0.20;0.20;;;8.50;99.90;;;;;;5074222;28;20094;-71
2023/01/08 10:06:30;;;;;;;;;;;8.60;99.90;;;;;;5080354;28;20113;-69
2023/01/08 10:08:56;;;;;;;0.88;0.88;;;8.60;99.90;;;;;;5091047;28;20007;-71
2023/01/08 10:11:24;;;;;;;0.10;0.10;;;8.60;99.90;;;;;;5071646;28;20036;-71
2023/01/08 10:13:55;;;;;;;0.00;0.00;;;8.60;99.90;;;;;;5085493;28;20110;-70
2023/01/08 10:16:34;;;;;;;0.00;0.00;;;8.60;99.90;;;;;;5090390;28;20046;-70
2023/01/08 10:19:03;;;;;;;0.00;0.00;;;8.60;99.90;;;;;;5080409;28;20466;-71
2023/01/08 10:21:36;;;;;;;0.10;0.10;;;8.70;99.90;;;;;;5070999;28;20140;-71
2023/01/08 10:24:02;;;;;;;;;;;8.70;99.90;;;;;;5082778;28;20436;-71
2023/01/08 10:26:36;;;;;;;0.10;0.10;;;8.70;99.90;;;;;;5089895;28;19969;-71
2023/01/08 10:29:11;;;;;;;0.10;0.10;;;8.80;99.90;;;;;;5090528;28;20051;-70
2023/01/08 10:31:52;;;;;;;0.10;0.10;;;8.90;99.90;;;;;;5083592;28;20067;-71
2023/01/08 10:34:26;;;;;;;1.38;1.27;;;8.90;99.90;;;;;;5070276;28;20541;-69
2023/01/08 10:36:53;;;;;;;0.15;0.15;;;8.90;99.90;;;;;;5080428;28;20035;-68
2023/01/08 10:39:27;;;;;;;0.22;0.22;;;8.90;99.90;;;;;;5076593;28;20574;-68
2023/01/08 10:41:55;;;;;;;;;;;8.90;99.90;;;;;;5052733;28;20048;-69
2023/01/08 10:44:23;;;;;;;0.45;0.45;;;8.90;99.90;;;;;;5079454;28;19920;-69
2023/01/08 10:46:52;;;;;;;0.00;0.00;;;8.90;99.90;;;;;;5074652;28;20135;-70
2023/01/08 10:49:35;;;;;;;0.00;0.00;;;8.90;99.90;;;;;;5070260;28;20048;-70
2023/01/08 10:52:01;;;;;;;2.73;1.00;;;8.90;99.90;;;;;;5069507;28;20056;-69
2023/01/08 10:54:39;;;;;;;0.38;0.38;;;9.00;99.90;;;;;;5082597;28;20038;-70
2023/01/08 10:57:20;;;;;;;0.10;0.10;;;9.00;99.90;;;;;;5075946;28;20052;-71
2023/01/08 10:59:46;;;;;;;0.30;0.30;;;9.00;99.90;;;;;;5068683;28;20602;-70
2023/01/08 11:02:29;;;;;;;0.40;0.40;;;9.00;99.90;;;;;;5069301;28;20041;-70
2023/01/08 11:04:55;;;;;;;0.10;0.10;;;9.10;99.90;;;;;;5072133;28;20395;-71
2023/01/08 11:07:22;;;;;;;0.77;0.77;;;9.10;99.90;;;;;;5070422;28;20119;-71
2023/01/08 11:09:50;;;;;;;0.10;0.10;;;9.10;99.90;;;;;;5069152;28;20059;-71
2023/01/08 11:12:40;;;;;;;0.10;0.10;;;9.10;99.90;;;;;;5073165;28;20041;-71
2023/01/08 11:15:17;;;;;;;0.13;0.13;;;9.10;99.90;;;;;;5078264;28;20098;-71
2023/01/08 11:17:43;;;;;;;0.10;0.10;;;9.10;99.90;;;;;;5071425;28;20056;-71
2023/01/08 11:20:21;;;;;;;0.20;0.20;;;9.20;99.90;;;;;;5074405;28;20044;-71
2023/01/08 11:22:47;;;;;;;31.88;2.22;;;9.20;99.90;;;;;;5072986;28;20056;-71
2023/01/08 11:25:17;;;;;;;0.10;0.10;;;9.20;99.90;;;;;;5068607;28;20037;-71
2023/01/08 11:27:44;;;;;;;0.10;0.10;;;9.20;99.90;;;;;;5069768;28;20056;-71
2023/01/08 11:30:18;;;;;;;0.20;0.20;;;9.30;99.90;;;;;;5068250;28;20055;-71
2023/01/08 11:33:02;;;;;;;0.10;0.10;;;9.30;99.90;;;;;;5054610;28;20061;-71
2023/01/08 11:35:36;;;;;;;0.10;0.10;;;9.30;99.90;;;;;;5068575;28;20044;-71
2023/01/08 11:38:04;;;;;;;0.10;0.10;;;9.30;99.90;;;;;;5068903;28;20404;-71
2023/01/08 11:41:00;;;;;;;1.10;1.10;;;9.40;99.90;;;;;;5069071;28;20057;-71
2023/01/08 11:43:53;;;;;;;0.43;0.43;;;9.40;99.90;;;;;;5056501;28;20482;-71
2023/01/08 11:46:33;;;;;;;0.10;0.10;;;9.40;99.90;;;;;;5082701;28;20049;-71
2023/01/08 11:49:30;;;;;;;0.10;0.10;;;9.50;99.90;;;;;;5054287;28;20074;-71
2023/01/08 11:52:27;;;;;;;0.10;0.10;;;9.60;99.90;;;;;;5059044;28;20403;-71
2023/01/08 11:55:19;;;;;;;0.10;0.10;;;9.70;99.90;;;;;;5088656;28;20459;-71
2023/01/08 11:58:07;;;;;;;3.10;1.30;;;9.80;99.90;;;;;;5092913;28;20044;-71
2023/01/08 12:01:04;;;;;;;0.30;0.30;;;9.80;99.90;;;;;;5091626;28;20043;-71
2023/01/08 12:03:39;;;;;;;0.10;0.10;;;9.90;99.90;;;;;;5081611;28;20048;-70
2023/01/08 12:06:27;;;;;;;0.30;0.30;;;9.90;99.90;;;;;;5090230;28;20066;-71
2023/01/08 12:08:52;;;;;;;0.10;0.10;;;10.10;99.90;;;;;;5088219;28;20043;-70
2023/01/08 12:11:37;;;;;;;0.10;0.10;;;10.10;99.90;;;;;;5069046;28;20044;-71
2023/01/08 12:14:35;;;;;;;0.10;0.10;;;10.20;99.90;;;;;;5075460;28;20098;-70
2023/01/08 12:17:25;;;;;;;0.10;0.10;;;10.10;99.90;;;;;;5073849;28;20163;-70
2023/01/08 12:20:00;;;;;;;0.20;0.20;;;10.20;99.90;;;;;;5054918;28;20044;-70
2023/01/08 12:22:51;;;;;;;0.03;0.03;;;10.30;99.90;;;;;;5072464;28;20135;-70
2023/01/08 12:25:27;;;;;;;0.20;0.20;;;10.20;99.90;;;;;;5072044;28;20060;-71
2023/01/08 12:28:16;;;;;;;0.10;0.10;;;10.30;99.90;;;;;;5089379;28;20044;-71
2023/01/08 12:30:51;;;;;;;0.22;0.22;;;10.40;99.90;;;;;;5092990;28;20526;-72
2023/01/08 12:33:36;;;;;;;0.10;0.10;;;10.40;99.90;;;;;;5055924;28;20048;-70
2023/01/08 12:36:08;;;;;;;0.13;0.13;;;10.40;99.90;;;;;;5074180;28;20048;-70
2023/01/08 12:38:42;;;;;;;3.83;2.53;;;10.30;99.90;;;;;;5091882;28;20040;-70
2023/01/08 12:41:13;;;;;;;0.90;0.77;;;10.30;99.90;;;;;;5057009;28;20215;-70
2023/01/08 12:44:03;;;;;;;0.10;0.10;;;10.40;99.90;;;;;;5072018;28;20042;-70
2023/01/08 12:46:33;;;;;;;0.08;0.08;;;10.20;99.90;;;;;;5068331;28;20044;-70
2023/01/08 12:49:00;;;;;;;0.93;0.80;;;10.20;99.90;;;;;;5075160;28;20043;-70
2023/01/08 12:51:26;;;;;;;0.38;0.38;;;10.30;99.90;;;;;;5062388;28;20048;-70
2023/01/08 12:54:18;;;;;;;0.57;0.57;;;10.30;99.90;;;;;;5053402;28;20090;-70
2023/01/08 12:57:08;;;;;;;7.72;1.00;;;10.30;99.90;;;;;;5071670;28;20454;-70
2023/01/08 12:59:46;;;;;;;0.17;0.17;;;10.20;99.90;;;;;;5070556;28;20048;-70
2023/01/08 13:02:41;;;;;;;0.10;0.10;;;10.20;99.90;;;;;;5062142;28;20172;-70
2023/01/08 13:05:19;;;;;;;0.68;0.35;;;10.10;99.90;;;;;;5072098;28;20791;-71
2023/01/08 13:07:55;;;;;;;0.30;0.30;;;10.00;99.90;;;;;;5096300;28;20131;-70
2023/01/08 13:10:37;;;;;;;0.17;0.17;;;10.00;99.90;;;;;;5081148;28;20045;-70